createdAt,value
2016-12-27T00:00:08.452Z,0
2016-12-27T00:01:17.448Z,0
2016-12-27T00:02:26.441Z,0
2016-12-27T00:03:35.150Z,0
2016-12-27T00:04:44.481Z,0
2016-12-27T00:05:53.186Z,0
2016-12-27T00:07:02.497Z,0
2016-12-27T00:08:11.831Z,0
2016-12-27T00:09:20.572Z,0
2016-12-27T00:10:29.588Z,0
2016-12-27T00:11:39.267Z,0
2016-12-27T00:12:48.303Z,0
2016-12-27T00:13:57.100Z,0
2016-12-27T00:15:06.424Z,0
2016-12-27T00:16:15.135Z,0
2016-12-27T00:17:24.452Z,0
2016-12-27T00:18:34.071Z,0
2016-12-27T00:19:43.087Z,0
2016-12-27T00:20:52.721Z,0
2016-12-27T00:22:01.746Z,0
2016-12-27T00:23:10.476Z,0
2016-12-27T00:24:19.834Z,0
2016-12-27T00:25:29.158Z,0
2016-12-27T00:26:37.858Z,0
2016-12-27T00:27:46.550Z,0
2016-12-27T00:28:55.577Z,0
2016-12-27T00:30:04.591Z,0
2016-12-27T00:31:13.920Z,0
2016-12-27T00:32:23.566Z,0
2016-12-27T00:33:32.563Z,0
2016-12-27T00:34:42.542Z,0
2016-12-27T00:35:51.559Z,0
2016-12-27T00:37:00.593Z,0
2016-12-27T00:38:09.281Z,0
2016-12-27T00:39:18.380Z,0
2016-12-27T00:40:28.041Z,0
2016-12-27T00:41:37.662Z,0
2016-12-27T00:42:46.658Z,0
2016-12-27T00:43:55.670Z,0
2016-12-27T00:45:04.375Z,0
2016-12-27T00:46:13.361Z,0
2016-12-27T00:47:22.708Z,0
2016-12-27T00:48:32.332Z,0
2016-12-27T00:49:41.662Z,0
2016-12-27T00:50:50.720Z,0
2016-12-27T00:51:59.412Z,0
2016-12-27T00:53:08.781Z,0
2016-12-27T00:54:18.109Z,0
2016-12-27T00:55:27.183Z,0
2016-12-27T00:56:36.190Z,0
2016-12-27T00:57:45.210Z,0
2016-12-27T00:58:54.208Z,0
2016-12-27T01:00:03.237Z,0
2016-12-27T01:01:12.278Z,0
2016-12-27T01:02:21.642Z,0
2016-12-27T01:03:30.718Z,0
2016-12-27T01:04:39.410Z,0
2016-12-27T01:05:48.458Z,0
2016-12-27T01:07:04.043Z,0
2016-12-27T01:08:13.082Z,0
2016-12-27T01:09:22.374Z,0
2016-12-27T01:10:31.391Z,0
2016-12-27T01:11:40.445Z,0
2016-12-27T01:12:49.150Z,0
2016-12-27T01:13:58.172Z,0
2016-12-27T01:15:06.881Z,0
2016-12-27T01:16:16.275Z,0
2016-12-27T01:17:25.308Z,0
2016-12-27T01:18:34.357Z,0
2016-12-27T01:19:43.416Z,0
2016-12-27T01:20:52.143Z,0
2016-12-27T01:22:01.140Z,0
2016-12-27T01:23:09.873Z,0
2016-12-27T01:24:18.552Z,0
2016-12-27T01:25:27.841Z,0
2016-12-27T01:26:36.915Z,0
2016-12-27T01:27:46.245Z,0
2016-12-27T01:28:55.253Z,0
2016-12-27T01:30:04.243Z,0
2016-12-27T01:31:12.946Z,0
2016-12-27T01:32:22.357Z,0
2016-12-27T01:33:31.678Z,0
2016-12-27T01:34:40.483Z,0
2016-12-27T01:35:49.502Z,0
2016-12-27T01:36:58.825Z,0
2016-12-27T01:38:09.082Z,0
2016-12-27T01:39:18.722Z,0
2016-12-27T01:40:27.774Z,0
2016-12-27T01:41:36.790Z,0
2016-12-27T01:42:45.828Z,0
2016-12-27T01:43:54.835Z,0
2016-12-27T01:45:04.461Z,0
2016-12-27T01:46:13.466Z,0
2016-12-27T01:47:23.090Z,0
2016-12-27T01:48:31.859Z,0
2016-12-27T01:49:40.862Z,0
2016-12-27T01:50:49.865Z,0
2016-12-27T01:51:58.852Z,0
2016-12-27T01:53:07.837Z,0
2016-12-27T01:54:17.137Z,0
2016-12-27T01:55:25.837Z,0
2016-12-27T01:56:34.846Z,0
2016-12-27T01:57:43.903Z,0
2016-12-27T01:58:53.194Z,0
2016-12-27T02:00:01.878Z,0
2016-12-27T02:01:11.486Z,0
2016-12-27T02:02:20.801Z,0
2016-12-27T02:03:29.801Z,0
2016-12-27T02:04:38.487Z,0
2016-12-27T02:05:47.478Z,0
2016-12-27T02:06:56.803Z,0
2016-12-27T02:08:05.786Z,0
2016-12-27T02:09:14.474Z,0
2016-12-27T02:10:23.822Z,0
2016-12-27T02:11:32.532Z,0
2016-12-27T02:12:41.857Z,0
2016-12-27T02:13:50.862Z,0
2016-12-27T02:15:00.157Z,0
2016-12-27T02:16:09.160Z,0
2016-12-27T02:17:18.479Z,0
2016-12-27T02:18:27.175Z,0
2016-12-27T02:19:36.195Z,0
2016-12-27T02:20:45.229Z,0
2016-12-27T02:21:54.302Z,0
2016-12-27T02:23:03.318Z,0
2016-12-27T02:24:12.027Z,0
2016-12-27T02:25:20.750Z,0
2016-12-27T02:26:29.765Z,0
2016-12-27T02:27:39.076Z,0
2016-12-27T02:28:48.079Z,0
2016-12-27T02:29:57.389Z,0
2016-12-27T02:31:06.388Z,0
2016-12-27T02:32:15.392Z,0
2016-12-27T02:33:24.738Z,0
2016-12-27T02:34:33.751Z,0
2016-12-27T02:35:43.072Z,0
2016-12-27T02:36:51.754Z,0
2016-12-27T02:38:01.050Z,0
2016-12-27T02:39:09.741Z,0
2016-12-27T02:40:18.738Z,0
2016-12-27T02:41:27.735Z,0
2016-12-27T02:42:36.730Z,0
2016-12-27T02:43:45.458Z,0
2016-12-27T02:44:54.474Z,0
2016-12-27T02:46:03.189Z,0
2016-12-27T02:47:12.191Z,0
2016-12-27T02:48:21.202Z,0
2016-12-27T02:49:29.912Z,0
2016-12-27T02:50:38.919Z,0
2016-12-27T02:51:48.216Z,0
2016-12-27T02:52:56.937Z,0
2016-12-27T02:54:05.959Z,0
2016-12-27T02:55:14.647Z,0
2016-12-27T02:56:23.660Z,0
2016-12-27T02:57:32.699Z,0
2016-12-27T02:58:41.708Z,0
2016-12-27T02:59:50.417Z,0
2016-12-27T03:00:59.410Z,0
2016-12-27T03:02:08.720Z,0
2016-12-27T03:03:17.418Z,0
2016-12-27T03:04:26.115Z,0
2016-12-27T03:05:35.446Z,0
2016-12-27T03:06:44.128Z,0
2016-12-27T03:07:52.897Z,0
2016-12-27T03:09:02.200Z,0
2016-12-27T03:10:11.811Z,0
2016-12-27T03:11:20.546Z,0
2016-12-27T03:12:29.866Z,0
2016-12-27T03:13:38.883Z,0
2016-12-27T03:14:48.618Z,0
2016-12-27T03:15:57.635Z,0
2016-12-27T03:17:06.347Z,0
2016-12-27T03:18:15.999Z,0
2016-12-27T03:19:25.059Z,0
2016-12-27T03:20:34.364Z,0
2016-12-27T03:21:43.679Z,0
2016-12-27T03:22:52.368Z,0
2016-12-27T03:24:01.065Z,0
2016-12-27T03:25:10.063Z,0
2016-12-27T03:26:19.120Z,0
2016-12-27T03:27:28.775Z,0
2016-12-27T03:28:38.120Z,0
2016-12-27T03:29:47.154Z,0
2016-12-27T03:30:56.144Z,0
2016-12-27T03:32:05.146Z,0
2016-12-27T03:33:13.848Z,0
2016-12-27T03:34:22.761Z,0
2016-12-27T03:35:31.761Z,0
2016-12-27T03:36:40.487Z,0
2016-12-27T03:37:49.482Z,0
2016-12-27T03:38:58.206Z,0
2016-12-27T03:40:07.851Z,0
2016-12-27T03:41:17.479Z,0
2016-12-27T03:42:26.473Z,0
2016-12-27T03:43:35.480Z,0
2016-12-27T03:44:44.475Z,0
2016-12-27T03:45:53.471Z,0
2016-12-27T03:47:02.472Z,0
2016-12-27T03:48:11.187Z,0
2016-12-27T03:49:20.810Z,0
2016-12-27T03:50:30.452Z,0
2016-12-27T03:51:39.491Z,0
2016-12-27T03:52:48.498Z,0
2016-12-27T03:53:57.800Z,0
2016-12-27T03:55:06.520Z,0
2016-12-27T03:56:15.509Z,0
2016-12-27T03:57:24.871Z,0
2016-12-27T03:58:34.175Z,0
2016-12-27T03:59:43.185Z,0
2016-12-27T04:00:51.887Z,0
2016-12-27T04:02:00.894Z,0
2016-12-27T04:03:09.931Z,0
2016-12-27T04:04:19.863Z,0
2016-12-27T04:05:28.857Z,0
2016-12-27T04:06:37.839Z,0
2016-12-27T04:07:47.152Z,0
2016-12-27T04:08:56.218Z,0
2016-12-27T04:10:04.931Z,0
2016-12-27T04:11:14.242Z,0
2016-12-27T04:12:23.854Z,0
2016-12-27T04:13:32.873Z,0
2016-12-27T04:14:42.305Z,0
2016-12-27T04:15:51.659Z,0
2016-12-27T04:17:01.014Z,0
2016-12-27T04:18:10.311Z,0
2016-12-27T04:19:19.978Z,0
2016-12-27T04:20:28.983Z,0
2016-12-27T04:21:38.287Z,0
2016-12-27T04:22:48.598Z,0
2016-12-27T04:23:57.609Z,0
2016-12-27T04:25:06.633Z,0
2016-12-27T04:26:15.327Z,0
2016-12-27T04:27:24.629Z,0
2016-12-27T04:28:34.253Z,0
2016-12-27T04:29:43.558Z,0
2016-12-27T04:30:52.572Z,0
2016-12-27T04:32:01.879Z,0
2016-12-27T04:33:10.893Z,0
2016-12-27T04:34:19.655Z,0
2016-12-27T04:35:28.360Z,0
2016-12-27T04:36:37.346Z,0
2016-12-27T04:37:46.185Z,0
2016-12-27T04:38:55.234Z,0
2016-12-27T04:40:04.256Z,0
2016-12-27T04:41:13.251Z,0
2016-12-27T04:42:22.884Z,0
2016-12-27T04:43:31.886Z,0
2016-12-27T04:44:40.585Z,0
2016-12-27T04:45:49.291Z,0
2016-12-27T04:46:57.984Z,0
2016-12-27T04:48:06.677Z,0
2016-12-27T04:49:15.985Z,0
2016-12-27T04:50:24.987Z,0
2016-12-27T04:51:34.299Z,0
2016-12-27T04:52:43.002Z,0
2016-12-27T04:53:52.029Z,0
2016-12-27T04:55:01.027Z,0
2016-12-27T04:56:10.329Z,0
2016-12-27T04:57:19.327Z,0
2016-12-27T04:58:28.308Z,0
2016-12-27T04:59:37.305Z,0
2016-12-27T05:00:46.303Z,0
2016-12-27T05:01:55.608Z,0
2016-12-27T05:03:04.313Z,0
2016-12-27T05:04:13.026Z,0
2016-12-27T05:05:22.940Z,0
2016-12-27T05:06:32.314Z,0
2016-12-27T05:07:41.303Z,0
2016-12-27T05:08:50.305Z,0
2016-12-27T05:09:59.307Z,0
2016-12-27T05:11:08.008Z,0
2016-12-27T05:12:17.035Z,0
2016-12-27T05:13:26.649Z,0
2016-12-27T05:14:35.955Z,0
2016-12-27T05:15:44.637Z,0
2016-12-27T05:16:53.337Z,0
2016-12-27T05:18:02.323Z,0
2016-12-27T05:19:11.345Z,0
2016-12-27T05:20:20.344Z,0
2016-12-27T05:21:29.333Z,0
2016-12-27T05:22:38.054Z,0
2016-12-27T05:23:47.082Z,0
2016-12-27T05:24:55.793Z,0
2016-12-27T05:26:05.408Z,0
2016-12-27T05:27:14.104Z,0
2016-12-27T05:28:23.114Z,0
2016-12-27T05:29:31.800Z,0
2016-12-27T05:30:40.840Z,0
2016-12-27T05:31:50.449Z,0
2016-12-27T05:32:59.135Z,0
2016-12-27T05:34:08.459Z,0
2016-12-27T05:35:17.304Z,0
2016-12-27T05:36:26.915Z,0
2016-12-27T05:37:35.623Z,0
2016-12-27T05:38:44.941Z,0
2016-12-27T05:39:53.945Z,0
2016-12-27T05:41:02.944Z,0
2016-12-27T05:42:11.947Z,0
2016-12-27T05:43:20.937Z,0
2016-12-27T05:44:29.936Z,0
2016-12-27T05:45:39.241Z,0
2016-12-27T05:46:47.951Z,0
2016-12-27T05:47:56.961Z,0
2016-12-27T05:49:05.955Z,0
2016-12-27T05:50:14.992Z,0
2016-12-27T05:51:24.005Z,0
2016-12-27T05:52:33.023Z,0
2016-12-27T05:53:41.722Z,0
2016-12-27T05:54:50.757Z,0
2016-12-27T05:55:59.751Z,0
2016-12-27T05:57:09.052Z,0
2016-12-27T05:58:18.058Z,0
2016-12-27T05:59:27.090Z,0
2016-12-27T06:00:36.085Z,0
2016-12-27T06:01:45.699Z,0
2016-12-27T06:02:54.699Z,0
2016-12-27T06:04:04.307Z,0
2016-12-27T06:05:13.346Z,0
2016-12-27T06:06:22.649Z,4
2016-12-27T06:07:31.665Z,4
2016-12-27T06:08:40.664Z,0
2016-12-27T06:09:49.355Z,4
2016-12-27T06:10:58.364Z,4
2016-12-27T06:12:07.660Z,4
2016-12-27T06:13:16.662Z,0
2016-12-27T06:14:26.261Z,4
2016-12-27T06:15:35.560Z,4
2016-12-27T06:16:44.550Z,4
2016-12-27T06:17:53.609Z,4
2016-12-27T06:19:02.302Z,4
2016-12-27T06:20:10.999Z,4
2016-12-27T06:21:20.010Z,4
2016-12-27T06:22:28.694Z,4
2016-12-27T06:23:37.700Z,0
2016-12-27T06:24:47.006Z,0
2016-12-27T06:25:56.012Z,0
2016-12-27T06:27:04.757Z,0
2016-12-27T06:28:14.361Z,0
2016-12-27T06:29:23.666Z,0
2016-12-27T06:30:32.659Z,0
2016-12-27T06:31:41.648Z,0
2016-12-27T06:32:50.647Z,0
2016-12-27T06:33:59.971Z,0
2016-12-27T06:35:08.970Z,0
2016-12-27T06:36:18.269Z,0
2016-12-27T06:37:26.998Z,0
2016-12-27T06:38:36.297Z,0
2016-12-27T06:39:45.014Z,0
2016-12-27T06:40:53.706Z,0
2016-12-27T06:42:02.701Z,0
2016-12-27T06:43:12.018Z,0
2016-12-27T06:44:21.331Z,0
2016-12-27T06:45:30.869Z,0
2016-12-27T06:46:39.553Z,0
2016-12-27T06:47:48.573Z,0
2016-12-27T06:48:57.572Z,0
2016-12-27T06:50:06.897Z,0
2016-12-27T06:51:15.893Z,0
2016-12-27T06:52:24.580Z,0
2016-12-27T06:53:33.879Z,0
2016-12-27T06:54:42.570Z,0
2016-12-27T06:55:51.885Z,0
2016-12-27T06:57:01.189Z,0
2016-12-27T06:58:10.493Z,0
2016-12-27T06:59:19.486Z,0
2016-12-27T07:00:28.468Z,0
2016-12-27T07:01:37.162Z,0
2016-12-27T07:02:45.880Z,0
2016-12-27T07:03:54.873Z,0
2016-12-27T07:05:03.861Z,0
2016-12-27T07:06:12.878Z,0
2016-12-27T07:07:22.491Z,0
2016-12-27T07:08:31.166Z,0
2016-12-27T07:09:39.873Z,4
2016-12-27T07:10:48.871Z,0
2016-12-27T07:11:58.213Z,4
2016-12-27T07:13:07.218Z,4
2016-12-27T07:14:16.515Z,4
2016-12-27T07:15:25.210Z,8
2016-12-27T07:16:34.206Z,8
2016-12-27T07:17:43.509Z,4
2016-12-27T07:18:52.503Z,8
2016-12-27T07:20:01.490Z,8
2016-12-27T07:21:10.176Z,8
2016-12-27T07:22:19.176Z,12
2016-12-27T07:23:27.863Z,16
2016-12-27T07:24:36.862Z,16
2016-12-27T07:25:45.855Z,16
2016-12-27T07:26:54.550Z,20
2016-12-27T07:28:03.242Z,20
2016-12-27T07:29:12.870Z,24
2016-12-27T07:30:21.874Z,28
2016-12-27T07:31:30.560Z,36
2016-12-27T07:32:39.860Z,36
2016-12-27T07:33:49.164Z,40
2016-12-27T07:34:58.167Z,48
2016-12-27T07:36:07.165Z,52
2016-12-27T07:37:16.156Z,52
2016-12-27T07:38:25.152Z,56
2016-12-27T07:39:34.144Z,56
2016-12-27T07:40:42.822Z,60
2016-12-27T07:41:51.839Z,68
2016-12-27T07:43:01.451Z,72
2016-12-27T07:44:10.144Z,76
2016-12-27T07:45:18.823Z,88
2016-12-27T07:46:28.430Z,88
2016-12-27T07:47:37.442Z,84
2016-12-27T07:48:46.765Z,76
2016-12-27T07:49:55.483Z,72
2016-12-27T07:51:04.485Z,72
2016-12-27T07:52:14.151Z,80
2016-12-27T07:53:22.840Z,80
2016-12-27T07:54:31.858Z,80
2016-12-27T07:55:41.163Z,80
2016-12-27T07:56:50.469Z,88
2016-12-27T07:58:00.083Z,96
2016-12-27T07:59:09.101Z,108
2016-12-27T08:00:18.116Z,124
2016-12-27T08:01:27.133Z,140
2016-12-27T08:02:36.768Z,156
2016-12-27T08:03:46.076Z,164
2016-12-27T08:04:55.229Z,156
2016-12-27T08:06:04.241Z,156
2016-12-27T08:07:14.159Z,164
2016-12-27T08:08:22.876Z,168
2016-12-27T08:09:31.559Z,176
2016-12-27T08:10:40.853Z,180
2016-12-27T08:11:50.465Z,184
2016-12-27T08:12:59.769Z,184
2016-12-27T08:14:08.756Z,188
2016-12-27T08:15:17.784Z,196
2016-12-27T08:16:27.393Z,208
2016-12-27T08:17:36.393Z,224
2016-12-27T08:18:45.697Z,236
2016-12-27T08:19:54.390Z,244
2016-12-27T08:21:03.447Z,252
2016-12-27T08:22:12.155Z,268
2016-12-27T08:23:22.088Z,284
2016-12-27T08:24:31.121Z,296
2016-12-27T08:25:40.449Z,308
2016-12-27T08:26:49.160Z,320
2016-12-27T08:27:58.211Z,340
2016-12-27T08:29:07.216Z,376
2016-12-27T08:30:16.512Z,428
2016-12-27T08:31:25.830Z,452
2016-12-27T08:32:34.835Z,464
2016-12-27T08:33:43.834Z,472
2016-12-27T08:34:52.568Z,508
2016-12-27T08:36:01.600Z,516
2016-12-27T08:37:10.629Z,504
2016-12-27T08:38:19.650Z,488
2016-12-27T08:39:29.257Z,484
2016-12-27T08:40:38.024Z,412
2016-12-27T08:41:47.025Z,364
2016-12-27T08:42:56.019Z,376
2016-12-27T08:44:05.377Z,380
2016-12-27T08:45:14.379Z,380
2016-12-27T08:46:23.381Z,376
2016-12-27T08:47:32.581Z,384
2016-12-27T08:48:41.668Z,396
2016-12-27T08:49:50.660Z,396
2016-12-27T08:50:59.655Z,388
2016-12-27T08:52:08.345Z,388
2016-12-27T08:53:17.040Z,384
2016-12-27T08:54:26.039Z,380
2016-12-27T08:55:35.338Z,376
2016-12-27T08:56:44.635Z,368
2016-12-27T08:57:53.979Z,368
2016-12-27T08:59:03.395Z,380
2016-12-27T09:00:12.406Z,368
2016-12-27T09:01:21.194Z,408
2016-12-27T09:02:31.095Z,376
2016-12-27T09:03:41.454Z,348
2016-12-27T09:04:50.800Z,328
2016-12-27T09:05:59.489Z,340
2016-12-27T09:07:08.488Z,356
2016-12-27T09:08:18.101Z,372
2016-12-27T09:09:26.808Z,384
2016-12-27T09:10:36.139Z,392
2016-12-27T09:11:44.824Z,408
2016-12-27T09:12:54.532Z,432
2016-12-27T09:14:03.516Z,444
2016-12-27T09:15:13.189Z,444
2016-12-27T09:16:21.881Z,452
2016-12-27T09:17:30.875Z,456
2016-12-27T09:18:39.853Z,456
2016-12-27T09:19:48.835Z,452
2016-12-27T09:20:57.518Z,456
2016-12-27T09:22:06.244Z,460
2016-12-27T09:23:16.153Z,460
2016-12-27T09:24:25.149Z,464
2016-12-27T09:25:33.826Z,468
2016-12-27T09:26:42.815Z,476
2016-12-27T09:27:51.587Z,472
2016-12-27T09:29:00.267Z,472
2016-12-27T09:30:08.947Z,472
2016-12-27T09:31:18.581Z,472
2016-12-27T09:32:27.263Z,476
2016-12-27T09:33:36.261Z,484
2016-12-27T09:34:45.255Z,516
2016-12-27T09:35:54.263Z,516
2016-12-27T09:37:03.553Z,508
2016-12-27T09:38:12.542Z,512
2016-12-27T09:39:21.534Z,508
2016-12-27T09:40:31.139Z,508
2016-12-27T09:41:40.452Z,508
2016-12-27T09:42:49.775Z,488
2016-12-27T09:43:58.478Z,496
2016-12-27T09:45:07.796Z,496
2016-12-27T09:46:16.486Z,508
2016-12-27T09:47:25.189Z,524
2016-12-27T09:48:34.172Z,512
2016-12-27T09:49:43.166Z,508
2016-12-27T09:50:52.174Z,504
2016-12-27T09:52:01.168Z,504
2016-12-27T09:53:10.467Z,504
2016-12-27T09:54:19.451Z,508
2016-12-27T09:55:28.447Z,512
2016-12-27T09:56:37.775Z,512
2016-12-27T09:57:47.080Z,512
2016-12-27T09:58:55.779Z,512
2016-12-27T10:00:05.069Z,508
2016-12-27T10:01:14.357Z,504
2016-12-27T10:02:23.360Z,504
2016-12-27T10:03:32.673Z,504
2016-12-27T10:04:41.678Z,508
2016-12-27T10:05:50.981Z,516
2016-12-27T10:07:00.268Z,516
2016-12-27T10:08:08.959Z,512
2016-12-27T10:09:17.967Z,512
2016-12-27T10:10:26.737Z,512
2016-12-27T10:11:35.731Z,516
2016-12-27T10:12:44.724Z,516
2016-12-27T10:13:54.394Z,520
2016-12-27T10:15:03.105Z,520
2016-12-27T10:16:11.873Z,520
2016-12-27T10:17:20.855Z,520
2016-12-27T10:18:30.146Z,520
2016-12-27T10:19:39.847Z,520
2016-12-27T10:20:48.589Z,528
2016-12-27T10:21:57.982Z,548
2016-12-27T10:23:06.680Z,552
2016-12-27T10:24:15.663Z,556
2016-12-27T10:25:24.366Z,572
2016-12-27T10:26:33.959Z,628
2016-12-27T10:27:42.938Z,812
2016-12-27T10:28:51.926Z,808
2016-12-27T10:30:00.625Z,740
2016-12-27T10:31:09.619Z,700
2016-12-27T10:32:18.933Z,624
2016-12-27T10:33:27.626Z,592
2016-12-27T10:34:36.809Z,564
2016-12-27T10:35:45.795Z,580
2016-12-27T10:36:55.137Z,592
2016-12-27T10:38:04.431Z,608
2016-12-27T10:39:13.115Z,720
2016-12-27T10:40:22.427Z,828
2016-12-27T10:41:31.413Z,748
2016-12-27T10:42:41.018Z,788
2016-12-27T10:43:50.333Z,900
2016-12-27T10:44:59.335Z,852
2016-12-27T10:46:08.328Z,800
2016-12-27T10:47:17.015Z,788
2016-12-27T10:48:26.326Z,620
2016-12-27T10:49:35.332Z,496
2016-12-27T10:50:44.317Z,524
2016-12-27T10:51:53.612Z,524
2016-12-27T10:53:02.599Z,528
2016-12-27T10:54:11.280Z,532
2016-12-27T10:55:20.271Z,536
2016-12-27T10:56:29.263Z,540
2016-12-27T10:57:38.873Z,544
2016-12-27T10:58:47.852Z,540
2016-12-27T10:59:57.140Z,536
2016-12-27T11:01:06.131Z,544
2016-12-27T11:02:15.114Z,548
2016-12-27T11:03:23.821Z,540
2016-12-27T11:04:32.851Z,544
2016-12-27T11:05:42.145Z,548
2016-12-27T11:06:51.142Z,548
2016-12-27T11:07:59.828Z,548
2016-12-27T11:09:08.827Z,552
2016-12-27T11:10:17.523Z,544
2016-12-27T11:11:26.821Z,544
2016-12-27T11:12:35.807Z,540
2016-12-27T11:13:44.812Z,548
2016-12-27T11:14:54.135Z,544
2016-12-27T11:16:02.833Z,548
2016-12-27T11:17:13.116Z,536
2016-12-27T11:18:22.439Z,540
2016-12-27T11:19:31.439Z,536
2016-12-27T11:20:40.421Z,536
2016-12-27T11:21:49.108Z,536
2016-12-27T11:22:58.432Z,536
2016-12-27T11:24:07.413Z,532
2016-12-27T11:25:17.024Z,528
2016-12-27T11:26:25.731Z,528
2016-12-27T11:27:34.441Z,524
2016-12-27T11:28:43.458Z,528
2016-12-27T11:29:52.467Z,528
2016-12-27T11:31:01.173Z,528
2016-12-27T11:32:09.849Z,532
2016-12-27T11:33:18.524Z,532
2016-12-27T11:34:27.504Z,532
2016-12-27T11:35:36.205Z,532
2016-12-27T11:36:45.495Z,532
2016-12-27T11:37:54.778Z,536
2016-12-27T11:39:03.759Z,536
2016-12-27T11:40:12.773Z,532
2016-12-27T11:41:22.091Z,532
2016-12-27T11:42:31.441Z,528
2016-12-27T11:43:40.143Z,532
2016-12-27T11:44:49.735Z,532
2016-12-27T11:45:58.416Z,544
2016-12-27T11:47:07.100Z,552
2016-12-27T11:48:16.091Z,540
2016-12-27T11:49:25.403Z,540
2016-12-27T11:50:34.390Z,532
2016-12-27T11:51:43.078Z,532
2016-12-27T11:52:52.076Z,528
2016-12-27T11:54:01.370Z,532
2016-12-27T11:55:10.975Z,528
2016-12-27T11:56:19.966Z,524
2016-12-27T11:57:28.950Z,536
2016-12-27T11:58:37.948Z,552
2016-12-27T11:59:46.634Z,532
2016-12-27T12:00:55.627Z,524
2016-12-27T12:02:04.674Z,532
2016-12-27T12:03:13.668Z,524
2016-12-27T12:04:22.959Z,524
2016-12-27T12:05:32.252Z,672
2016-12-27T12:06:41.107Z,700
2016-12-27T12:07:50.095Z,568
2016-12-27T12:08:59.093Z,536
2016-12-27T12:10:08.697Z,540
2016-12-27T12:11:17.990Z,552
2016-12-27T12:12:26.986Z,524
2016-12-27T12:13:36.289Z,520
2016-12-27T12:14:44.976Z,544
2016-12-27T12:15:53.969Z,640
2016-12-27T12:17:02.962Z,548
2016-12-27T12:18:11.951Z,576
2016-12-27T12:19:20.952Z,712
2016-12-27T12:20:29.936Z,572
2016-12-27T12:21:38.612Z,528
2016-12-27T12:22:47.317Z,572
2016-12-27T12:23:56.299Z,596
2016-12-27T12:25:05.297Z,540
2016-12-27T12:26:14.603Z,560
2016-12-27T12:27:23.594Z,516
2016-12-27T12:28:33.227Z,512
2016-12-27T12:29:42.219Z,516
2016-12-27T12:30:51.217Z,548
2016-12-27T12:31:59.897Z,524
2016-12-27T12:33:08.913Z,528
2016-12-27T12:34:17.610Z,524
2016-12-27T12:35:27.215Z,504
2016-12-27T12:36:36.515Z,532
2016-12-27T12:37:45.813Z,528
2016-12-27T12:38:55.155Z,508
2016-12-27T12:40:04.764Z,516
2016-12-27T12:41:13.459Z,508
2016-12-27T12:42:22.131Z,504
2016-12-27T12:43:30.842Z,496
2016-12-27T12:44:39.889Z,496
2016-12-27T12:45:49.813Z,492
2016-12-27T12:46:58.491Z,492
2016-12-27T12:48:08.400Z,488
2016-12-27T12:49:17.716Z,488
2016-12-27T12:50:26.407Z,488
2016-12-27T12:51:35.106Z,484
2016-12-27T12:52:44.105Z,480
2016-12-27T12:53:53.631Z,484
2016-12-27T12:55:02.344Z,476
2016-12-27T12:56:11.649Z,480
2016-12-27T12:57:20.656Z,476
2016-12-27T12:58:29.685Z,476
2016-12-27T12:59:38.387Z,464
2016-12-27T13:00:47.741Z,472
2016-12-27T13:01:56.742Z,464
2016-12-27T13:03:05.745Z,472
2016-12-27T13:04:15.084Z,476
2016-12-27T13:05:24.086Z,508
2016-12-27T13:06:33.088Z,500
2016-12-27T13:07:42.721Z,496
2016-12-27T13:08:51.727Z,500
2016-12-27T13:10:00.730Z,504
2016-12-27T13:11:09.426Z,488
2016-12-27T13:12:18.732Z,480
2016-12-27T13:13:28.028Z,476
2016-12-27T13:14:37.634Z,472
2016-12-27T13:15:46.616Z,472
2016-12-27T13:16:55.312Z,472
2016-12-27T13:18:04.325Z,516
2016-12-27T13:19:13.648Z,468
2016-12-27T13:20:22.672Z,488
2016-12-27T13:21:31.988Z,472
2016-12-27T13:22:41.010Z,460
2016-12-27T13:23:50.001Z,456
2016-12-27T13:24:59.309Z,452
2016-12-27T13:26:08.327Z,456
2016-12-27T13:27:17.654Z,464
2016-12-27T13:28:26.347Z,440
2016-12-27T13:29:35.061Z,440
2016-12-27T13:30:44.385Z,436
2016-12-27T13:31:53.696Z,424
2016-12-27T13:33:02.422Z,432
2016-12-27T13:34:11.130Z,432
2016-12-27T13:35:20.124Z,428
2016-12-27T13:36:29.108Z,428
2016-12-27T13:37:38.125Z,424
2016-12-27T13:38:47.736Z,424
2016-12-27T13:39:57.049Z,416
2016-12-27T13:41:05.748Z,420
2016-12-27T13:42:15.054Z,420
2016-12-27T13:43:24.681Z,416
2016-12-27T13:44:33.996Z,412
2016-12-27T13:45:43.004Z,408
2016-12-27T13:46:52.298Z,408
2016-12-27T13:48:01.310Z,408
2016-12-27T13:49:10.021Z,400
2016-12-27T13:50:18.728Z,400
2016-12-27T13:51:27.719Z,400
2016-12-27T13:52:36.403Z,396
2016-12-27T13:53:45.409Z,392
2016-12-27T13:54:54.105Z,392
2016-12-27T13:56:02.831Z,388
2016-12-27T13:57:11.882Z,384
2016-12-27T13:58:20.598Z,384
2016-12-27T13:59:29.310Z,384
2016-12-27T14:00:38.029Z,376
2016-12-27T14:01:46.732Z,380
2016-12-27T14:02:55.764Z,376
2016-12-27T14:04:05.090Z,368
2016-12-27T14:05:13.858Z,368
2016-12-27T14:06:23.196Z,364
2016-12-27T14:07:32.220Z,360
2016-12-27T14:08:40.931Z,356
2016-12-27T14:09:49.625Z,356
2016-12-27T14:10:58.322Z,352
2016-12-27T14:12:07.314Z,352
2016-12-27T14:13:16.615Z,348
2016-12-27T14:14:25.914Z,344
2016-12-27T14:15:34.913Z,344
2016-12-27T14:16:44.204Z,340
2016-12-27T14:17:53.267Z,336
2016-12-27T14:19:02.571Z,336
2016-12-27T14:20:11.920Z,328
2016-12-27T14:21:20.646Z,328
2016-12-27T14:22:29.684Z,324
2016-12-27T14:23:39.061Z,316
2016-12-27T14:24:48.057Z,316
2016-12-27T14:25:57.069Z,312
2016-12-27T14:27:06.389Z,304
2016-12-27T14:28:15.082Z,300
2016-12-27T14:29:24.435Z,300
2016-12-27T14:30:33.743Z,296
2016-12-27T14:31:42.731Z,288
2016-12-27T14:32:51.746Z,288
2016-12-27T14:34:00.458Z,284
2016-12-27T14:35:09.465Z,280
2016-12-27T14:36:18.192Z,272
2016-12-27T14:37:26.902Z,268
2016-12-27T14:38:35.605Z,264
2016-12-27T14:39:44.611Z,264
2016-12-27T14:40:53.319Z,260
2016-12-27T14:42:02.043Z,252
2016-12-27T14:43:11.052Z,248
2016-12-27T14:44:20.050Z,244
2016-12-27T14:45:28.748Z,236
2016-12-27T14:46:37.803Z,236
2016-12-27T14:47:47.423Z,228
2016-12-27T14:48:56.116Z,224
2016-12-27T14:50:05.107Z,220
2016-12-27T14:51:13.812Z,212
2016-12-27T14:52:23.131Z,212
2016-12-27T14:53:32.145Z,200
2016-12-27T14:54:41.441Z,200
2016-12-27T14:55:50.443Z,192
2016-12-27T14:56:59.751Z,184
2016-12-27T14:58:08.460Z,176
2016-12-27T14:59:17.151Z,172
2016-12-27T15:00:26.149Z,168
2016-12-27T15:01:35.145Z,160
2016-12-27T15:02:44.452Z,156
2016-12-27T15:03:53.161Z,148
2016-12-27T15:05:01.847Z,144
2016-12-27T15:06:11.143Z,140
2016-12-27T15:07:20.141Z,132
2016-12-27T15:08:29.146Z,128
2016-12-27T15:09:38.128Z,124
2016-12-27T15:10:47.113Z,116
2016-12-27T15:11:55.805Z,108
2016-12-27T15:13:04.809Z,104
2016-12-27T15:14:14.142Z,100
2016-12-27T15:15:23.444Z,96
2016-12-27T15:16:32.428Z,92
2016-12-27T15:17:41.426Z,88
2016-12-27T15:18:50.424Z,84
2016-12-27T15:19:59.121Z,80
2016-12-27T15:21:08.126Z,76
2016-12-27T15:22:16.834Z,72
2016-12-27T15:23:25.528Z,68
2016-12-27T15:24:34.522Z,64
2016-12-27T15:25:43.540Z,60
2016-12-27T15:26:52.842Z,56
2016-12-27T15:28:01.532Z,52
2016-12-27T15:29:10.554Z,48
2016-12-27T15:30:19.581Z,44
2016-12-27T15:31:28.576Z,40
2016-12-27T15:32:37.894Z,36
2016-12-27T15:33:46.586Z,32
2016-12-27T15:34:56.194Z,32
2016-12-27T15:36:05.186Z,28
2016-12-27T15:37:14.493Z,24
2016-12-27T15:38:23.488Z,20
2016-12-27T15:39:32.500Z,16
2016-12-27T15:40:41.512Z,12
2016-12-27T15:41:50.818Z,12
2016-12-27T15:42:59.824Z,12
2016-12-27T15:44:08.821Z,8
2016-12-27T15:45:17.799Z,8
2016-12-27T15:46:26.790Z,4
2016-12-27T15:47:35.467Z,8
2016-12-27T15:48:44.459Z,4
2016-12-27T15:49:53.749Z,4
2016-12-27T15:51:03.050Z,4
2016-12-27T15:52:12.036Z,4
2016-12-27T15:53:21.719Z,4
2016-12-27T15:54:30.713Z,4
2016-12-27T15:55:39.704Z,8
2016-12-27T15:56:48.696Z,4
2016-12-27T15:57:57.676Z,4
2016-12-27T15:59:06.672Z,4
2016-12-27T16:00:15.364Z,4
2016-12-27T16:01:24.712Z,0
2016-12-27T16:02:33.702Z,4
2016-12-27T16:03:42.994Z,4
2016-12-27T16:04:51.991Z,4
2016-12-27T16:06:00.985Z,4
2016-12-27T16:07:09.663Z,8
2016-12-27T16:08:18.649Z,4
2016-12-27T16:09:28.246Z,4
2016-12-27T16:10:36.922Z,4
2016-12-27T16:11:45.906Z,4
2016-12-27T16:12:54.885Z,4
2016-12-27T16:14:04.180Z,4
2016-12-27T16:15:12.853Z,4
2016-12-27T16:16:21.528Z,4
2016-12-27T16:17:30.206Z,4
2016-12-27T16:18:39.189Z,4
2016-12-27T16:19:47.885Z,4
2016-12-27T16:20:56.900Z,4
2016-12-27T16:22:06.185Z,0
2016-12-27T16:23:15.481Z,4
2016-12-27T16:24:24.163Z,4
2016-12-27T16:25:33.148Z,4
2016-12-27T16:26:42.129Z,4